Time;durP1;ratioP1;P1;durP2;ratioP2;P2;SDS_P1;SDS_P2;PMS_P1;PMS_P2;Temp;Humidity;BMP_temperature;BMP_pressure;BME280_temperature;BME280_humidity;BME280_pressure;Samples;Min_cycle;Max_cycle;Signal;HPM_P1;HPM_P2
2021/09/27 00:00:31;;;;;;;0.40;0.20;;;;;;;15.48;100.00;100390.06;5019626;28;20448;-52
2021/09/27 00:02:58;;;;;;;0.40;0.20;;;;;;;15.58;100.00;100390.53;5020546;28;20452;-52
2021/09/27 00:05:27;;;;;;;0.40;0.30;;;;;;;15.56;100.00;100398.63;5026498;28;20526;-52
2021/09/27 00:07:53;;;;;;;2.20;1.07;;;;;;;15.48;100.00;100389.22;5027055;28;20457;-52
2021/09/27 00:10:24;;;;;;;0.77;0.77;;;;;;;15.57;100.00;100394.16;5021495;28;20423;-52
2021/09/27 00:12:52;;;;;;;0.50;0.40;;;;;;;15.45;100.00;100384.88;5020349;28;20499;-54
2021/09/27 00:15:25;;;;;;;18.43;2.47;;;;;;;15.58;100.00;100385.16;5017467;28;21058;-52
2021/09/27 00:17:52;;;;;;;0.57;0.57;;;;;;;15.61;100.00;100393.94;5011956;28;20511;-52
2021/09/27 00:20:19;;;;;;;0.40;0.30;;;;;;;15.64;100.00;100388.47;5024201;28;20496;-52
2021/09/27 00:22:48;;;;;;;0.40;0.20;;;;;;;15.70;100.00;100388.16;5026873;28;20508;-52
2021/09/27 00:25:18;;;;;;;0.47;0.47;;;;;;;15.65;100.00;100392.03;5013534;28;20473;-52
2021/09/27 00:27:44;;;;;;;0.40;0.30;;;;;;;15.81;100.00;100384.09;5026640;28;20520;-51
2021/09/27 00:30:13;;;;;;;1.23;1.23;;;;;;;15.87;100.00;100381.09;5024091;28;20452;-52
2021/09/27 00:32:40;;;;;;;0.87;0.87;;;;;;;15.90;100.00;100387.22;5019730;28;20448;-51
2021/09/27 00:35:09;;;;;;;0.40;0.20;;;;;;;15.87;100.00;100381.97;5022192;28;20472;-52
2021/09/27 00:37:36;;;;;;;0.70;0.70;;;;;;;15.87;100.00;100390.03;5026912;28;20453;-52
2021/09/27 00:40:05;;;;;;;0.40;0.20;;;;;;;15.88;100.00;100375.66;5024945;28;20487;-51
2021/09/27 00:42:32;;;;;;;1.97;0.90;;;;;;;15.95;100.00;100386.97;5019870;28;20486;-52
2021/09/27 00:44:59;;;;;;;1.03;1.03;;;;;;;15.93;100.00;100380.81;5021161;28;20450;-52
2021/09/27 00:47:26;;;;;;;0.40;0.27;;;;;;;15.99;100.00;100378.69;5026180;28;20848;-52
2021/09/27 00:49:53;;;;;;;0.60;0.60;;;;;;;16.02;100.00;100366.94;5020042;28;20455;-52
2021/09/27 00:52:20;;;;;;;3.90;0.93;;;;;;;15.96;100.00;100365.44;5032640;28;20451;-52
2021/09/27 00:54:48;;;;;;;1.80;0.73;;;;;;;15.92;100.00;100365.69;5018603;28;20484;-52
2021/09/27 00:57:22;;;;;;;0.57;0.57;;;;;;;15.90;100.00;100368.44;5031608;28;20513;-51
2021/09/27 00:59:52;;;;;;;0.80;0.80;;;;;;;15.85;100.00;100366.91;5019318;28;20448;-52
2021/09/27 01:02:19;;;;;;;0.40;0.20;;;;;;;15.86;100.00;100366.84;5025217;28;20445;-52
2021/09/27 01:04:46;;;;;;;2.00;1.90;;;;;;;15.95;100.00;100371.75;5026326;28;20452;-52
2021/09/27 01:07:28;;;;;;;0.40;0.30;;;;;;;15.99;100.00;100367.09;5021124;28;20486;-52
2021/09/27 01:10:18;;;;;;;0.40;0.30;;;;;;;16.02;100.00;100368.75;5019311;28;20953;-52
2021/09/27 01:13:19;;;;;;;1.43;1.37;;;;;;;16.10;100.00;100361.22;5018827;28;20436;-52
2021/09/27 01:16:07;;;;;;;0.43;0.37;;;;;;;16.06;100.00;100359.63;5024595;28;20526;-54
2021/09/27 01:18:55;;;;;;;0.50;0.50;;;;;;;16.09;100.00;100364.84;5009558;28;20444;-52
2021/09/27 01:21:41;;;;;;;0.40;0.20;;;;;;;16.05;100.00;100363.25;5019343;28;20513;-52
2021/09/27 01:24:29;;;;;;;0.53;0.53;;;;;;;16.08;100.00;100355.94;5019285;28;20502;-52
2021/09/27 01:27:04;;;;;;;0.40;0.20;;;;;;;16.08;100.00;100358.59;5021851;28;20495;-52
2021/09/27 01:29:40;;;;;;;0.40;0.30;;;;;;;16.20;100.00;100347.28;5026019;28;20503;-52
2021/09/27 01:32:21;;;;;;;0.53;0.53;;;;;;;16.24;100.00;100351.53;5016939;28;20506;-52
2021/09/27 01:35:06;;;;;;;0.70;0.43;;;;;;;16.23;100.00;100349.78;5009266;28;20506;-52
2021/09/27 01:37:53;;;;;;;1.40;1.00;;;;;;;16.21;100.00;100348.13;5019031;28;20814;-52
2021/09/27 01:40:23;;;;;;;9.27;1.33;;;;;;;16.15;100.00;100349.28;5018855;28;20515;-52
2021/09/27 01:43:24;;;;;;;0.40;0.40;;;;;;;16.15;100.00;100341.25;5024866;28;20483;-52
2021/09/27 01:46:01;;;;;;;0.40;0.20;;;;;;;16.10;100.00;100345.13;5025248;28;20994;-54
2021/09/27 01:48:49;;;;;;;0.40;0.30;;;;;;;16.06;100.00;100344.41;5025861;28;20962;-52
2021/09/27 01:51:52;;;;;;;0.40;0.30;;;;;;;16.02;100.00;100345.50;5023485;28;20941;-52
2021/09/27 01:54:36;;;;;;;0.40;0.20;;;;;;;15.99;100.00;100351.88;5011816;28;20443;-51
2021/09/27 01:57:18;;;;;;;0.40;0.40;;;;;;;16.01;100.00;100351.81;5018729;28;21043;-52
2021/09/27 02:00:18;;;;;;;0.50;0.50;;;;;;;15.98;100.00;100354.66;5018655;28;20491;-51
2021/09/27 02:02:56;;;;;;;2.60;2.50;;;;;;;15.85;100.00;100353.50;5015941;28;20950;-52
2021/09/27 02:05:37;;;;;;;3.13;0.80;;;;;;;15.87;100.00;100349.81;5019369;28;20474;-52
2021/09/27 02:08:08;;;;;;;0.40;0.20;;;;;;;15.75;100.00;100347.72;5018621;28;20868;-52
2021/09/27 02:10:37;;;;;;;1.07;1.07;;;;;;;15.70;100.00;100350.63;5022561;28;20449;-51
2021/09/27 02:13:19;;;;;;;0.40;0.20;;;;;;;15.79;100.00;100351.16;5025200;28;20837;-52
2021/09/27 02:16:12;;;;;;;4.43;0.60;;;;;;;15.79;100.00;100346.66;5024228;28;20499;-52
2021/09/27 02:18:53;;;;;;;0.40;0.20;;;;;;;15.80;100.00;100360.91;5010728;28;20443;-52
2021/09/27 02:21:30;;;;;;;0.53;0.50;;;;;;;15.86;100.00;100360.59;5018568;28;20447;-52
2021/09/27 02:24:16;;;;;;;0.50;0.30;;;;;;;15.86;100.00;100361.47;5020151;28;20444;-52
2021/09/27 02:26:48;;;;;;;0.50;0.43;;;;;;;15.92;100.00;100357.66;5024999;28;20460;-52
2021/09/27 02:29:16;;;;;;;0.40;0.30;;;;;;;15.88;100.00;100366.75;5022205;28;20487;-52
2021/09/27 02:31:57;;;;;;;1.03;1.03;;;;;;;15.90;100.00;100355.03;5025101;28;20889;-52
2021/09/27 02:34:32;;;;;;;0.40;0.30;;;;;;;15.93;100.00;100359.38;5029132;28;20502;-52
2021/09/27 02:37:01;;;;;;;3.90;1.63;;;;;;;16.00;100.00;100358.13;5029141;28;20468;-53
2021/09/27 02:39:49;;;;;;;0.40;0.30;;;;;;;16.06;100.00;100368.56;5028434;28;20817;-52
2021/09/27 02:42:38;;;;;;;0.40;0.30;;;;;;;16.05;100.00;100368.63;5018954;28;20449;-52
2021/09/27 02:45:07;;;;;;;0.50;0.30;;;;;;;16.07;100.00;100358.69;5022098;28;20500;-52
2021/09/27 02:47:39;;;;;;;0.40;0.40;;;;;;;16.09;100.00;100362.16;5022487;28;20932;-53
2021/09/27 02:50:12;;;;;;;0.40;0.20;;;;;;;16.06;100.00;100371.22;5022169;28;20484;-52
2021/09/27 02:52:40;;;;;;;0.40;0.30;;;;;;;16.07;100.00;100369.41;5035082;28;20451;-52
2021/09/27 02:55:14;;;;;;;0.40;0.20;;;;;;;16.12;100.00;100376.28;5021656;28;21055;-52
2021/09/27 02:58:20;;;;;;;0.40;0.30;;;;;;;16.10;100.00;100375.50;5033646;28;20473;-53
2021/09/27 03:01:14;;;;;;;0.60;0.60;;;;;;;16.08;100.00;100372.03;4970534;28;20490;-52
2021/09/27 03:04:02;;;;;;;0.30;0.20;;;;;;;16.13;100.00;100366.41;5021971;28;20479;-53
2021/09/27 03:06:28;;;;;;;1.43;1.33;;;;;;;16.13;100.00;100359.22;5021498;28;20524;-52
2021/09/27 03:09:04;;;;;;;2.10;2.00;;;;;;;16.14;100.00;100352.94;5025790;28;20484;-52
2021/09/27 03:11:43;;;;;;;0.40;0.40;;;;;;;16.10;100.00;100359.41;5027992;28;20893;-52
2021/09/27 03:14:47;;;;;;;0.40;0.20;;;;;;;16.04;100.00;100348.13;5027171;28;20472;-52
2021/09/27 03:17:20;;;;;;;0.93;0.93;;;;;;;16.07;100.00;100354.19;5016642;28;20808;-51
2021/09/27 03:20:12;;;;;;;0.40;0.30;;;;;;;16.09;100.00;100348.75;5021337;28;20867;-52
2021/09/27 03:22:53;;;;;;;0.40;0.20;;;;;;;16.09;100.00;100346.06;5021235;28;20478;-52
2021/09/27 03:25:57;;;;;;;0.40;0.20;;;;;;;16.07;100.00;100342.59;5023503;28;20464;-52
2021/09/27 03:28:56;;;;;;;0.50;0.50;;;;;;;16.05;100.00;100334.63;5013754;28;20497;-52
2021/09/27 03:31:48;;;;;;;0.40;0.40;;;;;;;16.07;100.00;100339.91;4969995;28;20511;-52
2021/09/27 03:34:18;;;;;;;0.67;0.67;;;;;;;16.07;100.00;100351.50;5027646;28;20427;-52
2021/09/27 03:37:05;;;;;;;1.67;1.67;;;;;;;16.11;100.00;100342.34;5025924;28;20485;-52
2021/09/27 03:40:01;;;;;;;1.70;1.60;;;;;;;16.12;100.00;100341.41;5010020;28;20675;-52
2021/09/27 03:42:54;;;;;;;0.30;0.20;;;;;;;16.07;100.00;100342.59;5020791;28;20834;-52
2021/09/27 03:45:30;;;;;;;0.40;0.30;;;;;;;16.05;100.00;100355.22;4980981;28;20990;-52
2021/09/27 03:47:59;;;;;;;0.57;0.50;;;;;;;16.11;100.00;100368.31;5024242;28;20498;-53
2021/09/27 03:50:39;;;;;;;0.40;0.20;;;;;;;16.03;100.00;100370.50;5025180;28;20811;-52
2021/09/27 03:53:28;;;;;;;0.40;0.27;;;;;;;16.02;100.00;100356.22;5034019;28;20447;-52
2021/09/27 03:56:02;;;;;;;3.80;0.87;;;;;;;16.07;100.00;100356.88;5013471;28;20495;-52
2021/09/27 03:58:34;;;;;;;0.40;0.20;;;;;;;16.11;100.00;100349.53;5029009;28;20863;-51
2021/09/27 04:01:10;;;;;;;2.20;0.77;;;;;;;16.18;100.00;100353.66;5025496;28;20933;-52
2021/09/27 04:03:52;;;;;;;0.50;0.50;;;;;;;16.16;100.00;100351.03;5021855;28;20486;-51
2021/09/27 04:06:33;;;;;;;2.73;1.50;;;;;;;16.11;100.00;100350.41;5022138;28;20501;-52
2021/09/27 04:09:19;;;;;;;0.43;0.37;;;;;;;16.07;100.00;100353.31;5025094;28;20488;-52
2021/09/27 04:12:10;;;;;;;0.40;0.30;;;;;;;16.10;100.00;100353.16;5027821;28;20938;-52
2021/09/27 04:15:19;;;;;;;1.40;1.40;;;;;;;16.08;100.00;100363.97;5027102;28;20954;-52
2021/09/27 04:18:01;;;;;;;0.40;0.20;;;;;;;16.12;100.00;100370.91;5021566;28;20456;-52
2021/09/27 04:20:59;;;;;;;0.40;0.20;;;;;;;15.95;100.00;100360.16;5024518;28;20448;-52
2021/09/27 04:23:38;;;;;;;1.80;1.17;;;;;;;16.00;100.00;100358.97;5011097;28;20456;-52
2021/09/27 04:26:27;;;;;;;0.33;0.20;;;;;;;15.88;100.00;100364.94;5019918;28;20474;-52
2021/09/27 04:29:21;;;;;;;0.40;0.30;;;;;;;15.89;100.00;100365.81;5004219;28;20575;-52
2021/09/27 04:32:13;;;;;;;1.80;0.90;;;;;;;15.88;100.00;100369.44;5022913;28;20510;-52
2021/09/27 04:35:01;;;;;;;0.40;0.30;;;;;;;15.79;100.00;100364.56;5021189;28;20525;-52
2021/09/27 04:37:29;;;;;;;0.60;0.60;;;;;;;15.81;100.00;100351.94;5019941;28;20875;-52
2021/09/27 04:39:57;;;;;;;0.40;0.20;;;;;;;15.76;100.00;100349.50;5022741;28;20472;-52
2021/09/27 04:43:08;;;;;;;0.40;0.40;;;;;;;15.79;100.00;100364.56;5026726;28;20456;-52
2021/09/27 04:46:10;;;;;;;0.83;0.83;;;;;;;15.77;100.00;100366.44;4971963;28;21045;-52
2021/09/27 04:49:01;;;;;;;0.80;0.80;;;;;;;15.70;100.00;100360.50;5013670;28;20487;-52
2021/09/27 04:51:39;;;;;;;0.30;0.20;;;;;;;15.75;100.00;100365.63;5025718;28;20455;-52
2021/09/27 04:54:38;;;;;;;0.33;0.20;;;;;;;15.77;100.00;100355.72;5008216;28;20452;-54
2021/09/27 04:57:14;;;;;;;0.40;0.20;;;;;;;15.74;100.00;100358.53;5019491;28;20887;-52
2021/09/27 05:00:09;;;;;;;0.30;0.20;;;;;;;15.68;100.00;100362.38;5019401;28;20448;-52
2021/09/27 05:02:46;;;;;;;1.03;0.70;;;;;;;15.74;100.00;100367.44;5021915;28;20453;-52
2021/09/27 05:05:49;;;;;;;2.53;1.27;;;;;;;15.76;100.00;100360.22;5025977;28;20503;-52
2021/09/27 05:08:38;;;;;;;0.30;0.20;;;;;;;15.74;100.00;100366.56;5026058;28;20502;-52
2021/09/27 05:11:20;;;;;;;0.40;0.20;;;;;;;15.73;100.00;100362.16;5025692;28;20443;-51
2021/09/27 05:13:46;;;;;;;0.40;0.30;;;;;;;15.73;100.00;100360.34;5022402;28;20452;-52
2021/09/27 05:16:26;;;;;;;0.63;0.63;;;;;;;15.70;100.00;100361.38;5019453;28;20537;-55
2021/09/27 05:19:18;;;;;;;0.37;0.23;;;;;;;15.61;100.00;100356.44;5021093;28;20519;-55
2021/09/27 05:22:13;;;;;;;0.30;0.20;;;;;;;15.64;100.00;100366.16;5009124;28;20483;-55
2021/09/27 05:25:04;;;;;;;0.40;0.20;;;;;;;15.53;100.00;100363.09;5019017;28;20820;-55
2021/09/27 05:27:50;;;;;;;0.40;0.20;;;;;;;15.53;100.00;100366.63;5019025;28;20514;-55
2021/09/27 05:30:40;;;;;;;0.30;0.20;;;;;;;15.60;100.00;100375.28;5023323;28;20488;-55
2021/09/27 05:33:30;;;;;;;1.93;0.73;;;;;;;15.48;100.00;100374.00;5024734;28;20480;-55
2021/09/27 05:36:22;;;;;;;0.30;0.20;;;;;;;15.62;100.00;100371.59;5025841;28;20930;-55
2021/09/27 05:38:49;;;;;;;0.30;0.20;;;;;;;15.50;100.00;100382.88;5005927;28;20461;-55
2021/09/27 05:41:30;;;;;;;1.43;1.43;;;;;;;15.49;100.00;100389.16;5024089;28;20876;-55
2021/09/27 05:44:38;;;;;;;0.60;0.60;;;;;;;15.40;100.00;100384.22;5026076;28;20444;-55
2021/09/27 05:47:15;;;;;;;0.40;0.20;;;;;;;15.44;100.00;100377.78;5012449;28;20472;-55
2021/09/27 05:50:12;;;;;;;0.70;0.70;;;;;;;15.40;100.00;100381.56;5018419;28;20524;-55
2021/09/27 05:52:47;;;;;;;0.40;0.30;;;;;;;15.26;100.00;100376.84;5010965;28;20452;-55
2021/09/27 05:55:29;;;;;;;0.40;0.20;;;;;;;15.22;100.00;100367.22;5018748;28;20529;-55
2021/09/27 05:58:06;;;;;;;0.40;0.20;;;;;;;15.35;100.00;100364.81;5030678;28;20452;-55
2021/09/27 06:00:40;;;;;;;0.40;0.40;;;;;;;15.34;100.00;100363.94;5032638;28;20483;-55
2021/09/27 06:03:41;;;;;;;0.60;0.60;;;;;;;15.47;100.00;100360.69;5022758;28;20495;-55
2021/09/27 06:06:28;;;;;;;0.70;0.70;;;;;;;15.29;100.00;100355.25;5022415;28;20519;-59
2021/09/27 06:09:07;;;;;;;0.40;0.20;;;;;;;15.06;100.00;100350.97;5026310;28;20488;-58
2021/09/27 06:11:39;;;;;;;0.73;0.50;;;;;;;15.26;100.00;100362.59;5028405;28;20858;-58
2021/09/27 06:14:13;;;;;;;0.30;0.20;;;;;;;15.38;100.00;100348.63;5029177;28;20448;-58
2021/09/27 06:16:57;;;;;;;0.40;0.20;;;;;;;15.43;100.00;100354.63;5028873;28;20480;-58
2021/09/27 06:20:06;;;;;;;0.40;0.20;;;;;;;15.38;100.00;100353.97;5029045;28;20484;-58
2021/09/27 06:22:47;;;;;;;2.00;1.90;;;;;;;15.43;100.00;100357.28;5023660;28;20499;-58
2021/09/27 06:25:34;;;;;;;0.67;0.67;;;;;;;15.51;100.00;100357.81;5025808;28;20463;-58
2021/09/27 06:28:40;;;;;;;0.57;0.50;;;;;;;15.48;100.00;100355.25;4996385;28;20463;-58
2021/09/27 06:31:36;;;;;;;0.40;0.40;;;;;;;15.59;100.00;100371.72;5018541;28;20499;-58
2021/09/27 06:34:24;;;;;;;0.63;0.63;;;;;;;15.53;100.00;100363.09;5025497;28;20423;-58
2021/09/27 06:36:51;;;;;;;0.40;0.20;;;;;;;15.51;100.00;100351.59;5027361;28;20467;-58
2021/09/27 06:39:26;;;;;;;0.40;0.20;;;;;;;15.67;100.00;100366.88;5009451;28;20440;-58
2021/09/27 06:41:53;;;;;;;0.47;0.47;;;;;;;15.66;100.00;100365.13;5022235;28;20491;-59
2021/09/27 06:44:22;;;;;;;0.50;0.40;;;;;;;15.65;100.00;100371.44;5028022;28;20495;-58
2021/09/27 06:46:48;;;;;;;0.73;0.73;;;;;;;15.65;100.00;100363.41;5028572;28;20518;-58
2021/09/27 06:49:15;;;;;;;0.30;0.20;;;;;;;15.67;100.00;100372.22;5022646;28;20490;-58
2021/09/27 06:51:43;;;;;;;0.30;0.20;;;;;;;15.72;100.00;100376.50;5029974;28;20455;-58
2021/09/27 06:54:13;;;;;;;0.40;0.20;;;;;;;15.64;100.00;100369.72;5027395;28;20452;-58
2021/09/27 06:56:40;;;;;;;1.80;1.70;;;;;;;15.64;100.00;100375.06;5029060;28;20468;-58
2021/09/27 06:59:07;;;;;;;0.50;0.50;;;;;;;15.59;100.00;100382.44;5026660;28;20444;-58
2021/09/27 07:01:37;;;;;;;0.40;0.40;;;;;;;15.70;100.00;100382.81;5028583;28;20469;-58
2021/09/27 07:04:04;;;;;;;0.67;0.67;;;;;;;15.58;100.00;100372.63;5024632;28;20462;-58
2021/09/27 07:06:31;;;;;;;0.40;0.20;;;;;;;15.61;100.00;100374.31;5021499;28;20980;-58
2021/09/27 07:08:58;;;;;;;0.40;0.20;;;;;;;15.54;100.00;100375.53;5024790;28;20484;-58
2021/09/27 07:11:24;;;;;;;0.40;0.40;;;;;;;15.61;100.00;100369.84;5028369;28;20456;-58
2021/09/27 07:13:51;;;;;;;1.53;1.53;;;;;;;15.74;100.00;100375.47;5025231;28;20562;-58
2021/09/27 07:16:17;;;;;;;0.40;0.20;;;;;;;15.74;100.00;100364.75;5020256;28;20507;-58
2021/09/27 07:19:02;;;;;;;0.30;0.20;;;;;;;15.75;100.00;100366.50;5021909;28;20440;-58
2021/09/27 07:21:29;;;;;;;0.33;0.20;;;;;;;15.93;100.00;100364.75;5027895;28;20499;-58
2021/09/27 07:23:56;;;;;;;1.80;1.80;;;;;;;15.84;100.00;100370.53;5027873;28;20486;-58
2021/09/27 07:26:22;;;;;;;0.40;0.30;;;;;;;15.90;100.00;100372.94;5021138;28;20504;-58
2021/09/27 07:28:52;;;;;;;0.40;0.20;;;;;;;15.89;100.00;100374.72;5021654;28;20456;-58
2021/09/27 07:31:20;;;;;;;0.40;0.20;;;;;;;15.94;100.00;100374.53;5018259;28;20479;-58
2021/09/27 07:33:47;;;;;;;0.40;0.30;;;;;;;16.06;100.00;100376.59;5027671;28;20451;-58
2021/09/27 07:36:14;;;;;;;1.03;1.03;;;;;;;16.18;100.00;100367.94;5021831;28;20981;-58
2021/09/27 07:38:40;;;;;;;0.30;0.20;;;;;;;16.25;100.00;100388.13;5021171;28;20452;-58
2021/09/27 07:41:07;;;;;;;1.67;1.33;;;;;;;16.42;100.00;100383.72;5026847;28;20457;-58
2021/09/27 07:43:34;;;;;;;0.40;0.30;;;;;;;16.40;100.00;100388.28;5027658;28;20452;-58
2021/09/27 07:46:02;;;;;;;0.40;0.20;;;;;;;16.50;100.00;100389.56;5022376;28;20495;-58
2021/09/27 07:48:29;;;;;;;0.73;0.73;;;;;;;16.55;100.00;100385.69;5020684;28;20463;-58
2021/09/27 07:50:56;;;;;;;0.40;0.20;;;;;;;16.64;100.00;100375.44;5020203;28;20550;-58
2021/09/27 07:53:24;;;;;;;0.93;0.87;;;;;;;16.76;100.00;100381.06;5027733;28;20455;-58
2021/09/27 07:55:52;;;;;;;0.50;0.50;;;;;;;16.68;100.00;100385.09;5022791;28;20962;-58
2021/09/27 07:58:19;;;;;;;0.57;0.50;;;;;;;16.76;100.00;100381.06;5030595;28;20937;-58
2021/09/27 08:00:48;;;;;;;0.40;0.40;;;;;;;16.91;100.00;100382.06;5023182;28;20418;-59
2021/09/27 08:03:15;;;;;;;1.47;1.47;;;;;;;16.96;100.00;100380.00;5020350;28;20466;-58
2021/09/27 08:05:42;;;;;;;0.40;0.20;;;;;;;17.06;100.00;100381.25;5024244;28;20468;-58
2021/09/27 08:08:08;;;;;;;0.40;0.20;;;;;;;17.03;100.00;100377.88;5027194;28;20451;-58
2021/09/27 08:10:37;;;;;;;0.40;0.40;;;;;;;16.98;100.00;100377.22;5023554;28;20492;-58
2021/09/27 08:13:04;;;;;;;0.50;0.50;;;;;;;17.08;100.00;100360.53;5020213;28;20945;-58
2021/09/27 08:15:35;;;;;;;0.40;0.30;;;;;;;17.10;100.00;100366.69;5023141;28;20517;-58
2021/09/27 08:18:04;;;;;;;0.40;0.20;;;;;;;17.10;100.00;100361.31;5026015;28;20448;-59
2021/09/27 08:20:35;;;;;;;1.80;1.70;;;;;;;17.06;100.00;100370.50;5025052;28;20625;-59
2021/09/27 08:23:03;;;;;;;0.40;0.20;;;;;;;17.03;100.00;100359.94;5019536;28;20496;-59
2021/09/27 08:25:30;;;;;;;0.40;0.30;;;;;;;16.99;100.00;100363.72;5021297;28;20873;-58
2021/09/27 08:27:57;;;;;;;0.40;0.20;;;;;;;17.10;100.00;100368.50;5026685;28;20445;-59
2021/09/27 08:30:30;;;;;;;0.33;0.20;;;;;;;17.22;100.00;100370.53;5026220;28;20527;-59
2021/09/27 08:32:59;;;;;;;0.40;0.20;;;;;;;17.32;100.00;100370.91;5026188;28;20502;-59
2021/09/27 08:35:28;;;;;;;0.40;0.20;;;;;;;17.62;100.00;100355.75;5026608;28;20482;-59
2021/09/27 08:37:54;;;;;;;0.40;0.30;;;;;;;17.65;100.00;100355.56;5020906;28;20506;-59
2021/09/27 08:40:27;;;;;;;0.60;0.60;;;;;;;17.94;100.00;100358.44;5019786;28;20480;-59
2021/09/27 08:42:54;;;;;;;0.40;0.20;;;;;;;17.98;100.00;100358.19;5024577;28;20534;-59
2021/09/27 08:45:26;;;;;;;0.40;0.20;;;;;;;17.95;100.00;100350.28;5026783;28;20441;-59
2021/09/27 08:48:10;;;;;;;1.13;0.50;;;;;;;17.89;100.00;100350.66;5023378;28;20827;-59
2021/09/27 08:50:42;;;;;;;1.37;0.63;;;;;;;18.02;100.00;100358.88;5019463;28;20571;-59
2021/09/27 08:53:35;;;;;;;0.40;0.20;;;;;;;18.19;100.00;100355.19;5033035;28;20514;-59
2021/09/27 08:56:24;;;;;;;0.40;0.30;;;;;;;18.14;100.00;100357.28;5013814;28;20514;-59
2021/09/27 08:59:03;;;;;;;0.40;0.20;;;;;;;18.15;100.00;100351.81;5026497;28;20510;-59
2021/09/27 09:01:37;;;;;;;2.00;1.80;;;;;;;18.29;100.00;100357.25;5026128;28;20525;-59
2021/09/27 09:04:36;;;;;;;0.50;0.40;;;;;;;18.63;100.00;100360.59;5022335;28;20451;-59
2021/09/27 09:07:11;;;;;;;0.40;0.30;;;;;;;18.45;100.00;100361.72;5025365;28;20484;-59
2021/09/27 09:09:44;;;;;;;0.57;0.57;;;;;;;18.33;100.00;100357.94;5026121;28;20552;-59
2021/09/27 09:12:22;;;;;;;0.83;0.77;;;;;;;18.25;100.00;100354.84;5022425;28;20452;-59
2021/09/27 09:14:59;;;;;;;0.40;0.20;;;;;;;18.23;100.00;100348.69;5019435;28;20502;-59
2021/09/27 09:17:32;;;;;;;2.47;1.53;;;;;;;18.29;100.00;100351.88;5020467;28;20422;-59
2021/09/27 09:20:10;;;;;;;0.40;0.40;;;;;;;18.32;100.00;100351.69;5025924;28;20420;-59
2021/09/27 09:22:40;;;;;;;0.97;0.97;;;;;;;18.20;100.00;100349.72;5026002;28;20990;-59
2021/09/27 09:25:24;;;;;;;0.40;0.30;;;;;;;18.18;100.00;100348.94;5021709;28;20500;-59
2021/09/27 09:27:52;;;;;;;0.40;0.20;;;;;;;18.41;100.00;100352.97;5018956;28;20949;-59
2021/09/27 09:30:21;;;;;;;0.40;0.30;;;;;;;18.63;100.00;100344.44;5023031;28;20489;-59
2021/09/27 09:32:52;;;;;;;0.40;0.40;;;;;;;18.82;100.00;100349.59;5018954;28;20456;-59
2021/09/27 09:35:24;;;;;;;0.40;0.20;;;;;;;18.96;100.00;100349.63;5019442;28;20949;-59
2021/09/27 09:37:52;;;;;;;9.10;2.30;;;;;;;18.78;100.00;100357.03;5019680;28;20478;-58
2021/09/27 09:40:19;;;;;;;0.40;0.30;;;;;;;19.13;100.00;100349.41;5018846;28;20448;-59
2021/09/27 09:43:10;;;;;;;0.40;0.20;;;;;;;19.27;100.00;100345.84;5025097;28;20515;-59
2021/09/27 09:45:45;;;;;;;0.57;0.57;;;;;;;19.57;100.00;100339.47;5026065;28;20537;-59
2021/09/27 09:48:19;;;;;;;0.80;0.80;;;;;;;19.89;100.00;100340.09;5024229;28;20929;-59
2021/09/27 09:50:49;;;;;;;0.40;0.20;;;;;;;19.90;100.00;100339.97;5019535;28;20494;-59
2021/09/27 09:53:31;;;;;;;0.40;0.20;;;;;;;20.15;100.00;100335.63;5031226;28;20455;-59
2021/09/27 09:56:03;;;;;;;0.40;0.30;;;;;;;19.78;100.00;100338.97;5021989;28;20446;-59
2021/09/27 09:58:36;;;;;;;0.40;0.20;;;;;;;19.83;100.00;100330.53;5027067;28;20449;-59
2021/09/27 10:01:20;;;;;;;0.40;0.30;;;;;;;20.07;100.00;100331.63;5024058;28;20436;-59
2021/09/27 10:04:10;;;;;;;0.50;0.50;;;;;;;19.89;100.00;100329.28;5006708;28;20430;-59
2021/09/27 10:06:43;;;;;;;0.50;0.40;;;;;;;19.64;100.00;100322.81;5018726;28;20472;-59
2021/09/27 10:09:29;;;;;;;0.40;0.23;;;;;;;19.92;100.00;100331.78;5021382;28;20510;-59
2021/09/27 10:12:11;;;;;;;0.40;0.20;;;;;;;19.81;100.00;100327.09;5019699;28;20433;-60
2021/09/27 10:14:43;;;;;;;0.70;0.70;;;;;;;20.03;100.00;100329.22;5019042;28;20874;-59
2021/09/27 10:17:29;;;;;;;0.40;0.20;;;;;;;19.96;100.00;100339.56;5020760;28;20439;-59
2021/09/27 10:20:18;;;;;;;0.50;0.40;;;;;;;19.94;100.00;100336.09;5025434;28;20449;-59
2021/09/27 10:22:58;;;;;;;0.40;0.20;;;;;;;20.10;100.00;100333.22;5025430;28;20422;-59
2021/09/27 10:25:32;;;;;;;0.47;0.47;;;;;;;20.21;100.00;100336.09;5023325;28;20470;-59
2021/09/27 10:28:01;;;;;;;0.70;0.70;;;;;;;20.20;100.00;100347.00;5018415;28;20965;-59
2021/09/27 10:31:08;;;;;;;0.40;0.20;;;;;;;20.08;100.00;100338.75;5022416;28;20491;-59
2021/09/27 10:33:48;;;;;;;0.87;0.87;;;;;;;20.11;100.00;100333.13;5012596;28;20925;-59
2021/09/27 10:36:21;;;;;;;0.43;0.30;;;;;;;20.25;100.00;100336.72;5007002;28;20488;-59
2021/09/27 10:38:58;;;;;;;0.40;0.20;;;;;;;20.28;100.00;100334.69;5018493;28;20423;-59
2021/09/27 10:41:29;;;;;;;0.40;0.20;;;;;;;20.30;100.00;100340.00;5022164;28;20960;-59
2021/09/27 10:44:03;;;;;;;1.07;1.07;;;;;;;20.38;100.00;100335.78;5025427;28;20445;-59
2021/09/27 10:46:35;;;;;;;0.40;0.30;;;;;;;20.40;100.00;100327.56;5026316;28;20858;-59
2021/09/27 10:49:04;;;;;;;0.40;0.20;;;;;;;20.68;100.00;100327.44;5022045;28;20478;-59
2021/09/27 10:51:38;;;;;;;0.40;0.20;;;;;;;20.72;100.00;100321.84;5029357;28;20493;-59
2021/09/27 10:54:22;;;;;;;0.40;0.20;;;;;;;21.04;100.00;100327.66;5026669;28;20457;-59
2021/09/27 10:56:52;;;;;;;0.40;0.20;;;;;;;21.11;100.00;100328.97;5030670;28;20836;-59
2021/09/27 10:59:31;;;;;;;0.40;0.30;;;;;;;21.20;100.00;100326.44;5026211;28;20829;-59
2021/09/27 11:02:22;;;;;;;0.40;0.20;;;;;;;21.04;100.00;100331.22;5028598;28;20454;-59
2021/09/27 11:05:14;;;;;;;0.70;0.53;;;;;;;20.93;100.00;100325.72;5028523;28;20447;-59
2021/09/27 11:07:48;;;;;;;0.40;0.20;;;;;;;20.84;100.00;100329.09;5027117;28;21010;-59
2021/09/27 11:10:37;;;;;;;0.40;0.20;;;;;;;20.91;100.00;100333.06;5011176;28;20505;-59
2021/09/27 11:13:04;;;;;;;0.40;0.20;;;;;;;20.81;100.00;100322.03;5021575;28;20418;-59
2021/09/27 11:15:40;;;;;;;0.40;0.20;;;;;;;20.92;100.00;100327.53;5025040;28;20496;-59
2021/09/27 11:18:15;;;;;;;0.40;0.30;;;;;;;20.89;100.00;100337.72;5027385;28;20460;-59
2021/09/27 11:20:48;;;;;;;0.40;0.30;;;;;;;20.93;100.00;100325.72;5027468;28;20493;-59
2021/09/27 11:23:22;;;;;;;0.50;0.40;;;;;;;20.75;100.00;100333.28;5028134;28;20444;-59
2021/09/27 11:26:11;;;;;;;0.40;0.20;;;;;;;20.96;100.00;100320.06;5027646;28;20893;-59
2021/09/27 11:28:46;;;;;;;0.47;0.40;;;;;;;20.93;100.00;100314.91;5025799;28;20444;-59
2021/09/27 11:31:16;;;;;;;0.50;0.50;;;;;;;21.07;100.00;100311.22;5019256;28;20462;-59
2021/09/27 11:33:50;;;;;;;0.40;0.40;;;;;;;21.06;100.00;100296.84;5027808;28;20419;-59
2021/09/27 11:36:16;;;;;;;0.40;0.20;;;;;;;21.49;100.00;100288.31;5009585;28;20450;-59
2021/09/27 11:38:49;;;;;;;0.43;0.37;;;;;;;21.29;99.88;100284.38;5013075;28;20469;-59
2021/09/27 11:41:15;;;;;;;0.40;0.30;;;;;;;21.38;100.00;100282.84;5022029;28;20451;-59
2021/09/27 11:44:13;;;;;;;0.40;0.20;;;;;;;21.62;100.00;100288.28;5020700;28;20499;-59
2021/09/27 11:46:58;;;;;;;0.53;0.53;;;;;;;21.64;100.00;100297.13;5021667;28;20477;-59
2021/09/27 11:49:36;;;;;;;0.50;0.47;;;;;;;21.80;99.99;100293.19;5009752;28;20452;-59
2021/09/27 11:52:33;;;;;;;0.40;0.20;;;;;;;21.82;100.00;100295.78;5031516;28;20465;-59
2021/09/27 11:55:24;;;;;;;0.40;0.20;;;;;;;21.72;99.71;100292.03;5020705;28;20474;-59
2021/09/27 11:58:02;;;;;;;0.40;0.30;;;;;;;21.90;99.32;100290.63;5031541;28;20448;-59
2021/09/27 12:00:38;;;;;;;0.40;0.30;;;;;;;21.95;97.46;100293.88;5020531;28;20414;-59
2021/09/27 12:03:26;;;;;;;0.40;0.30;;;;;;;21.79;97.88;100296.00;5019348;28;20855;-59
2021/09/27 12:06:04;;;;;;;0.40;0.30;;;;;;;21.88;97.36;100290.75;5024959;28;20468;-59